• Join FlightAware (Why Join?)
  • Login
  • US Flag 
06:54AM EDT


 

Airport Tracker/Info


-or-


 

Live Flight TrackerFlight Track Log ✈ SKW5652 ✈ 19-May-2013 ✈ KSFO - KPSP

Flight Track Log - Related Links

Times and Time Zones

All times are in EDT time to prevent confusion due to time zone crossing. See the SKW5652 flight status page for this flight to view local times or setup timezone preferences in your user account.

Time Position Orientation Groundspeed Altitude Reporting Facility
EDT Latitude Longitude Course Direction KTS MPH feet Rate Location/Type
01:50PM 37.6500 -122.3658 133° Southeast 152 175 31,000  Level Oakland Center
01:52PM 37.6783 -122.4044 313° West 222 255 4,200 -18,960 Descending Oakland Center
01:52PM 37.6667 -122.4167 220° Southwest 238 274 5,100 2,400 Climbing Northern Cal TRACON
01:53PM 37.6183 -122.4367 198° South 240 276 6,700 2,280 Climbing Oakland Center
01:54PM 37.3240 -122.1954 136° Southeast  Level FlightAware Approximate
01:54PM 37.5369 -122.4556 190° South 293 337 9,000  Level Oakland Center
01:55PM 37.2326 -122.0602 133° Southeast  Level FlightAware Approximate
01:55PM 37.4542 -122.4086 156° South 323 372 11,500  Level Oakland Center
01:56PM 37.1355 -121.9306 133° Southeast  Level FlightAware Approximate
01:56PM 37.3833 -122.3328 140° Southeast 347 399 13,800  Level Oakland Center
01:57PM 37.3267 -122.2383 127° Southeast 344 396 16,300 2,160 Climbing Oakland Center
01:58PM 37.2667 -122.1386 127° Southeast 356 410 18,300 1,800 Climbing Oakland Center
01:59PM 37.2031 -122.0331 127° Southeast 377 434 20,100 1,980 Climbing Oakland Center
02:00PM 37.1225 -121.9011 127° Southeast 395 455 22,400 1,920 Climbing Oakland Center
02:01PM 37.0528 -121.7900 128° Southeast 405 466 24,100 1,560 Climbing Oakland Center
02:02PM 36.9803 -121.6733 128° Southeast 420 483 25,700 1,560 Climbing Oakland Center
02:03PM 36.9078 -121.5539 127° Southeast 430 495 27,300 1,500 Climbing Oakland Center
02:04PM 36.8339 -121.4319 127° Southeast 438 504 28,800 1,380 Climbing Oakland Center
02:05PM 36.7497 -121.2986 128° Southeast 449 517 30,200 1,020 Climbing Oakland Center
02:06PM 36.6722 -121.1714 127° Southeast 457 526 31,000 360 Climbing Oakland Center
02:07PM 36.5919 -121.0425 128° Southeast 467 537 31,000  Level Oakland Center
02:08PM 36.5114 -120.9156 128° Southeast 468 539 31,000  Level Oakland Center
02:09PM 36.4306 -120.7875 128° Southeast 470 541 31,000  Level Oakland Center
02:10PM 36.3483 -120.6589 128° Southeast 472 543 31,000  Level Oakland Center
02:11PM 36.2672 -120.5306 128° Southeast 472 543 31,000  Level Oakland Center
02:12PM 36.1664 -120.3739 129° Southeast 484 557 31,000  Level Oakland Center
02:13PM 36.0842 -120.2458 128° Southeast 475 547 31,000  Level Oakland Center
02:14PM 36.0031 -120.1206 129° Southeast 464 534 31,000  Level Oakland Center
02:15PM 35.9189 -119.9931 129° Southeast 470 541 31,000  Level Oakland Center
02:16PM 35.8358 -119.8631 128° Southeast 477 549 31,000  Level Oakland Center
02:17PM 35.7522 -119.7364 129° Southeast 474 545 31,000  Level Oakland Center
02:18PM 35.6681 -119.6075 129° Southeast 478 550 31,000  Level Oakland Center
02:19PM 35.5858 -119.4839 129° Southeast 469 540 31,000  Level Oakland Center
02:20PM 35.4881 -119.3356 129° Southeast 464 534 31,000  Level Oakland Center
02:21PM 35.4733 -119.3114 127° Southeast 466 536 31,000  Level Los Angeles Center
02:22PM 35.3931 -119.1889 129° Southeast 463 533 31,000  Level Los Angeles Center
02:23PM 35.2958 -119.0425 129° Southeast 461 531 31,000 -300 Level Los Angeles Center
02:24PM 35.1997 -118.8975 129° Southeast 457 526 30,500 -780 Descending Los Angeles Center
02:25PM 35.1158 -118.7764 130° Southeast 463 533 29,500 -960 Descending Los Angeles Center
02:26PM 35.0528 -118.6817 129° Southeast 455 524 28,600 -1,080 Descending Los Angeles Center
02:27PM 34.9583 -118.5428 130° Southeast 443 510 27,100 -1,260 Descending Los Angeles Center
02:28PM 34.8742 -118.4178 129° Southeast 416 479 25,800 -1,200 Descending Los Angeles Center
02:29PM 34.8031 -118.3150 130° Southeast 402 463 24,600 -1,320 Descending Los Angeles Center
02:30PM 34.7175 -118.1889 130° Southeast 405 466 23,100 -1,260 Descending Los Angeles Center
02:31PM 34.6436 -118.0828 130° Southeast 412 474 22,000 -1,020 Descending Los Angeles Center
02:32PM 34.5850 -117.9667 121° Southeast 407 468 21,000 -960 Descending Los Angeles Center
02:33PM 34.5347 -117.8539 118° Southeast 387 445 20,100 -840 Descending Los Angeles Center
02:34PM 34.4747 -117.7228 119° Southeast 373 429 19,300 -720 Descending Los Angeles Center
02:35PM 34.4247 -117.6147 119° Southeast 371 427 18,600 -660 Descending Los Angeles Center
02:36PM 34.3781 -117.5122 119° Southeast 371 427 18,000 -660 Descending Los Angeles Center
02:38PM 34.3317 -117.4081 118° Southeast 358 412 17,300 -480 Descending Los Angeles Center
02:39PM 34.2722 -117.2817 120° Southeast 360 414 17,100 -120 Descending Los Angeles Center
02:40PM 34.2250 -117.1783 119° Southeast 355 409 17,100  Level Los Angeles Center
02:41PM 34.1725 -117.0697 120° Southeast 357 411 17,100 -360 Level Los Angeles Center
02:42PM 34.1253 -116.9689 119° Southeast 350 403 16,400 -1,080 Descending Los Angeles Center
02:43PM 34.0864 -116.8844 119° Southeast 353 406 14,900 -1,200 Descending Los Angeles Center
02:44PM 34.0314 -116.7661 119° Southeast 335 386 14,000 -1,260 Descending Los Angeles Center
02:45PM 33.9914 -116.6828 120° Southeast 292 336 12,100 -2,100 Descending Los Angeles Center
02:46PM 33.9381 -116.5700 120° Southeast 277 319 9,300 -2,340 Descending Los Angeles Center
02:47PM 33.9056 -116.5008 120° Southeast 263 303 7,300 -2,040 Descending Los Angeles Center
02:49PM 33.8333 -116.4000 131° Southeast 205 236 3,600 -1,980 Descending Southern California TRACON
02:50PM 33.7833 -116.4167 195° South 184 212 1,800 -1,800 Descending Southern California TRACON